Time;durP1;ratioP1;P1;durP2;ratioP2;P2;SDS_P1;SDS_P2;PMS_P1;PMS_P2;Temp;Humidity;BMP_temperature;BMP_pressure;BME280_temperature;BME280_humidity;BME280_pressure;Samples;Min_cycle;Max_cycle;Signal;HPM_P1;HPM_P2
2022/04/27 00:00:28;;;;;;;;;18.75;17.00;;;;;9.37;55.56;101308.59;4996556;28;45455;-63
2022/04/27 00:02:55;;;;;;;;;18.50;17.75;;;;;9.33;55.96;101313.91;4995300;28;45515;-64
2022/04/27 00:05:21;;;;;;;;;24.25;22.00;;;;;9.29;56.32;101301.75;4996728;28;45381;-63
2022/04/27 00:07:47;;;;;;;;;19.75;18.50;;;;;9.26;55.44;101301.81;4996129;28;45568;-64
2022/04/27 00:10:12;;;;;;;;;19.00;18.50;;;;;9.12;56.08;101285.53;4996387;28;45445;-63
2022/04/27 00:12:38;;;;;;;;;25.25;20.25;;;;;9.23;56.11;101296.66;4994942;28;45342;-64
2022/04/27 00:15:07;;;;;;;;;21.50;19.50;;;;;9.20;56.40;101305.44;4992640;28;45437;-65
2022/04/27 00:17:33;;;;;;;;;20.25;20.25;;;;;9.18;56.24;101303.78;4996028;28;45578;-64
2022/04/27 00:19:58;;;;;;;;;16.50;12.50;;;;;9.14;56.54;101300.34;4996372;28;45312;-65
2022/04/27 00:22:24;;;;;;;;;21.00;19.00;;;;;9.08;56.92;101297.84;4996682;28;45445;-64
2022/04/27 00:24:49;;;;;;;;;17.75;17.75;;;;;9.09;56.40;101304.81;4996267;28;45261;-64
2022/04/27 00:27:15;;;;;;;;;18.75;17.00;;;;;9.09;56.16;101301.34;4995953;28;46366;-63
2022/04/27 00:29:41;;;;;;;;;16.50;15.50;;;;;9.05;56.88;101304.03;4994906;28;45474;-62
2022/04/27 00:32:06;;;;;;;;;17.75;17.25;;;;;9.02;56.99;101306.75;4995589;28;45468;-64
2022/04/27 00:34:32;;;;;;;;;13.25;13.25;;;;;8.95;56.55;101299.03;4996288;28;45555;-65
2022/04/27 00:36:57;;;;;;;;;19.75;17.25;;;;;8.97;56.73;101294.59;4995621;28;46246;-65
2022/04/27 00:39:22;;;;;;;;;17.00;17.00;;;;;8.93;56.98;101300.81;4995705;28;45369;-65
2022/04/27 00:42:00;;;;;;;;;20.25;19.75;;;;;8.89;57.20;101303.50;4996972;28;45400;-65
2022/04/27 00:44:25;;;;;;;;;19.50;19.00;;;;;8.87;57.08;101304.41;4996191;28;45544;-63
2022/04/27 00:46:51;;;;;;;;;18.50;17.25;;;;;8.84;57.61;101304.50;4996894;28;45422;-65
2022/04/27 00:49:16;;;;;;;;;19.00;17.00;;;;;8.77;57.52;101295.91;4978991;28;45253;-63
2022/04/27 00:51:41;;;;;;;;;14.25;14.25;;;;;8.80;57.51;101298.47;4996838;28;45207;-64
2022/04/27 00:54:07;;;;;;;;;20.75;16.25;;;;;8.77;57.68;101299.38;4997131;28;45643;-65
2022/04/27 00:56:32;;;;;;;;;20.00;18.25;;;;;8.76;57.34;101292.41;4996470;28;46487;-65
2022/04/27 00:58:58;;;;;;;;;13.00;11.75;;;;;8.70;57.78;101287.28;4995477;28;45305;-65
2022/04/27 01:01:23;;;;;;;;;19.50;19.25;;;;;8.73;57.62;101294.25;4996816;28;45759;-66
2022/04/27 01:03:49;;;;;;;;;20.00;18.25;;;;;8.66;57.90;101288.25;4996918;28;45286;-65
2022/04/27 01:06:15;;;;;;;;;18.75;17.25;;;;;8.68;57.57;101293.47;4978774;28;46241;-65
2022/04/27 01:08:41;;;;;;;;;19.00;19.00;;;;;8.63;58.21;101280.44;4996475;28;45490;-65
2022/04/27 01:11:06;;;;;;;;;18.00;16.00;;;;;8.61;58.16;101288.34;4996405;28;45399;-64
2022/04/27 01:13:32;;;;;;;;;18.50;18.50;;;;;8.59;57.95;101279.66;4996502;28;45589;-64
2022/04/27 01:15:58;;;;;;;;;19.25;17.75;;;;;8.54;57.94;101278.88;4996372;28;46080;-64
2022/04/27 01:18:23;;;;;;;;;20.00;18.75;;;;;8.52;57.88;101277.19;4996261;28;45396;-64
2022/04/27 01:20:50;;;;;;;;;19.25;18.50;;;;;8.51;58.44;101273.72;4996290;28;45539;-65
2022/04/27 01:23:16;;;;;;;;;18.25;17.00;;;;;8.51;58.19;101283.31;4996467;28;45372;-64
2022/04/27 01:25:51;;;;;;;;;20.00;17.50;;;;;8.51;57.81;101281.56;4996018;28;46629;-64
2022/04/27 01:28:24;;;;;;;;;21.25;20.00;;;;;8.50;58.27;101277.22;4995932;28;45349;-63
2022/04/27 01:30:58;;;;;;;;;19.00;17.00;;;;;8.47;57.52;101278.09;4996209;28;45382;-65
2022/04/27 01:33:25;;;;;;;;;22.50;18.25;;;;;8.45;58.10;101276.38;4996185;28;45293;-64
2022/04/27 01:35:50;;;;;;;;;20.00;18.75;;;;;8.42;58.76;101276.47;4995948;28;46138;-63
2022/04/27 01:38:18;;;;;;;;;24.00;21.25;;;;;8.39;57.77;101269.53;4995902;28;45349;-63
2022/04/27 01:40:47;;;;;;;;;21.75;18.75;;;;;8.37;58.34;101281.81;4995868;28;45267;-63
2022/04/27 01:43:15;;;;;;;;;17.00;15.75;;;;;8.34;58.33;101274.84;4996110;28;45333;-63
2022/04/27 01:45:44;;;;;;;;;18.00;17.25;;;;;8.31;58.87;101279.31;4995627;28;45425;-63
2022/04/27 01:48:13;;;;;;;;;21.00;19.50;;;;;8.27;58.58;101275.88;4995566;28;45178;-64
2022/04/27 01:50:38;;;;;;;;;20.75;19.75;;;;;8.23;59.48;101275.97;4995744;28;45295;-63
2022/04/27 01:55:50;;;;;;;;;21.75;18.00;;;;;8.20;58.99;101279.50;4995293;28;45703;-65
2022/04/27 01:58:16;;;;;;;;;13.25;11.00;;;;;8.17;58.58;101284.81;4995614;28;45317;-64
2022/04/27 02:00:41;;;;;;;;;21.00;19.50;;;;;8.11;58.84;101280.56;4995641;28;45277;-65
2022/04/27 02:03:06;;;;;;;;;17.25;17.25;;;;;8.15;58.74;101282.22;4996050;28;45540;-64
2022/04/27 02:05:32;;;;;;;;;22.25;20.00;;;;;8.11;59.05;101277.94;4995813;28;46212;-65
2022/04/27 02:07:57;;;;;;;;;20.25;20.25;;;;;8.11;59.29;101284.91;4995344;28;45354;-64
2022/04/27 02:10:23;;;;;;;;;23.00;19.00;;;;;8.08;59.21;101284.97;4994829;28;45207;-63
2022/04/27 02:12:49;;;;;;;;;21.75;21.25;;;;;8.07;59.78;101291.09;4995809;28;45220;-63
2022/04/27 02:15:14;;;;;;;;;22.50;20.00;;;;;8.06;59.80;101295.50;4977740;28;47057;-63
2022/04/27 02:17:40;;;;;;;;;25.00;22.50;;;;;8.02;59.79;101289.44;4995525;28;45277;-63
2022/04/27 02:20:06;;;;;;;;;25.00;23.00;;;;;7.97;60.49;101286.03;4995703;28;45326;-64
2022/04/27 02:22:34;;;;;;;;;20.25;20.25;;;;;7.95;60.33;101295.69;4994465;28;45629;-64
2022/04/27 02:25:00;;;;;;;;;21.75;20.50;;;;;7.98;60.66;101297.41;4995769;28;47246;-63
2022/04/27 02:27:26;;;;;;;;;23.25;19.75;;;;;7.95;60.46;101295.69;4995484;28;45464;-64
2022/04/27 02:29:51;;;;;;;;;22.25;20.25;;;;;7.93;60.53;101292.22;4995458;28;45364;-64
2022/04/27 02:32:18;;;;;;;;;22.00;18.75;;;;;7.89;61.02;101290.56;4977608;28;45277;-64
2022/04/27 02:34:44;;;;;;;;;25.00;20.75;;;;;7.88;60.93;101288.81;4994978;28;45486;-63
2022/04/27 02:37:09;;;;;;;;;24.25;22.50;;;;;7.84;60.42;101290.63;4977497;28;45339;-63
2022/04/27 02:39:34;;;;;;;;;25.75;24.00;;;;;7.81;60.42;101284.59;4995252;28;45378;-62
2022/04/27 02:42:00;;;;;;;;;20.75;20.00;;;;;7.79;60.89;101278.50;4995836;28;45238;-62
2022/04/27 02:44:25;;;;;;;;;29.75;24.25;;;;;7.75;60.76;101278.56;4995274;28;45491;-63
2022/04/27 02:46:51;;;;;;;;;21.75;21.75;;;;;7.75;60.94;101290.78;4994931;28;45448;-64
2022/04/27 02:52:00;;;;;;;;;25.75;24.00;;;;;7.67;61.38;101293.53;4994265;28;45345;-65
2022/04/27 02:54:26;;;;;;;;;29.00;24.50;;;;;7.66;60.88;101283.06;4994673;28;45269;-64
2022/04/27 02:56:51;;;;;;;;;28.75;24.25;;;;;7.64;61.43;101290.97;4994917;28;45317;-64
2022/04/27 02:59:17;;;;;;;;;28.25;24.50;;;;;7.65;61.35;101292.69;4994974;28;45480;-64
2022/04/27 03:01:42;;;;;;;;;28.50;25.25;;;;;7.59;62.40;101288.41;4995272;28;45499;-65
2022/04/27 03:04:09;;;;;;;;;23.25;22.25;;;;;7.61;61.39;101285.78;4994674;28;45464;-64
2022/04/27 03:06:35;;;;;;;;;28.75;25.75;;;;;7.59;61.72;101283.19;4995167;28;45380;-64
2022/04/27 03:09:00;;;;;;;;;23.00;23.00;;;;;7.60;61.58;101284.06;4995201;28;45344;-63
2022/04/27 03:11:26;;;;;;;;;28.75;24.75;;;;;7.58;61.80;101291.06;4977642;28;46035;-62
2022/04/27 03:13:51;;;;;;;;;30.00;26.75;;;;;7.56;62.65;101290.22;4977102;28;46143;-65
2022/04/27 03:16:17;;;;;;;;;22.25;22.25;;;;;7.48;61.88;101282.50;4994619;28;45461;-64
2022/04/27 03:18:42;;;;;;;;;27.25;22.50;;;;;7.50;62.80;101287.72;4994733;28;45231;-64
2022/04/27 03:21:09;;;;;;;;;28.25;26.25;;;;;7.43;62.72;101284.31;4994973;28;45595;-64
2022/04/27 03:23:34;;;;;;;;;35.00;30.50;;;;;7.41;63.47;101280.88;4996585;28;45364;-64
2022/04/27 03:26:00;;;;;;;;;32.50;23.25;;;;;7.33;62.79;101275.72;4998046;28;45418;-63
2022/04/27 03:28:25;;;;;;;;;33.50;30.25;;;;;7.37;63.79;101289.66;4998270;28;45409;-66
2022/04/27 03:30:51;;;;;;;;;31.00;29.25;;;;;7.31;63.41;101283.63;4998421;28;45477;-63
2022/04/27 03:33:17;;;;;;;;;34.00;29.50;;;;;7.28;63.40;101283.66;4979819;28;46915;-66
2022/04/27 03:35:42;;;;;;;;;31.25;28.25;;;;;7.27;63.48;101281.06;4998332;28;45553;-66
2022/04/27 03:38:09;;;;;;;;;31.75;30.25;;;;;7.27;64.06;101278.44;4998160;28;45310;-64
2022/04/27 03:40:35;;;;;;;;;32.25;29.25;;;;;7.24;64.38;101274.13;4998700;28;45501;-64
2022/04/27 03:43:01;;;;;;;;;30.25;28.75;;;;;7.08;63.96;101252.56;4997616;28;46254;-63
2022/04/27 03:45:26;;;;;;;;;35.25;30.75;;;;;7.20;63.98;101277.69;4997547;28;45366;-64
2022/04/27 03:47:52;;;;;;;;;33.75;31.75;;;;;7.13;64.51;101270.81;4997626;28;45261;-63
2022/04/27 03:50:17;;;;;;;;;36.75;30.50;;;;;7.07;65.58;101266.53;4997793;28;45211;-64
2022/04/27 03:52:43;;;;;;;;;32.50;30.00;;;;;7.03;65.83;101271.84;4997293;28;45502;-64
2022/04/27 03:55:09;;;;;;;;;33.75;31.50;;;;;6.98;66.03;101272.78;4997653;28;45286;-64
2022/04/27 03:57:35;;;;;;;;;33.75;32.00;;;;;6.96;65.99;101266.69;4997336;28;45347;-63
2022/04/27 04:00:00;;;;;;;;;34.50;30.50;;;;;6.90;66.30;101273.75;4997621;28;45277;-63
2022/04/27 04:02:25;;;;;;;;;32.00;31.25;;;;;6.89;66.64;101272.03;4997133;28;45493;-61
2022/04/27 04:04:51;;;;;;;;;30.75;30.25;;;;;6.85;66.27;101276.41;4997259;28;45437;-64
2022/04/27 04:07:16;;;;;;;;;38.50;33.50;;;;;6.82;66.98;101279.06;4997419;28;45337;-64
2022/04/27 04:09:42;;;;;;;;;38.25;33.25;;;;;6.81;66.17;101274.72;4997438;28;45700;-64
2022/04/27 04:12:08;;;;;;;;;36.50;33.00;;;;;6.77;67.82;101275.66;4997340;28;45527;-65
2022/04/27 04:14:34;;;;;;;;;40.50;34.25;;;;;6.77;67.36;101284.38;4997270;28;45417;-64
2022/04/27 04:17:00;;;;;;;;;42.75;33.50;;;;;6.73;66.60;101277.47;4997192;28;45422;-63
2022/04/27 04:19:25;;;;;;;;;45.25;36.00;;;;;6.71;66.79;101282.69;4997555;28;45555;-62
2022/04/27 04:21:51;;;;;;;;;40.00;32.75;;;;;6.72;67.53;101287.03;4997044;28;45558;-62
2022/04/27 04:24:17;;;;;;;;;43.00;34.75;;;;;6.66;67.94;101286.28;4996964;28;45259;-66
2022/04/27 04:29:26;;;;;;;;;29.25;29.25;;;;;6.63;67.77;101288.91;4997370;28;45282;-63
2022/04/27 04:31:52;;;;;;;;;40.00;34.75;;;;;6.57;69.09;101285.50;4996618;28;46301;-64
2022/04/27 04:34:17;;;;;;;;;38.75;34.75;;;;;6.54;68.95;101288.16;4996375;28;45232;-64
2022/04/27 04:36:43;;;;;;;;;36.75;31.00;;;;;6.52;68.48;101291.66;4997063;28;45207;-64
2022/04/27 04:39:09;;;;;;;;;39.50;33.75;;;;;6.52;68.82;101294.25;4997458;28;45612;-65
2022/04/27 04:41:34;;;;;;;;;48.00;36.75;;;;;6.49;68.77;101295.19;4996842;28;46664;-64
2022/04/27 04:43:59;;;;;;;;;39.25;34.50;;;;;6.49;69.27;101300.41;4996718;28;45475;-64
2022/04/27 04:46:25;;;;;;;;;42.00;35.50;;;;;6.46;69.21;101300.44;4996970;28;45590;-64
2022/04/27 04:48:50;;;;;;;;;48.25;37.75;;;;;6.44;70.66;101304.81;4997526;28;46194;-64
2022/04/27 04:51:16;;;;;;;;;40.75;34.00;;;;;6.40;69.55;101296.13;4996420;28;46048;-65
2022/04/27 04:53:41;;;;;;;;;39.00;34.75;;;;;6.42;70.03;101293.53;4996576;28;45361;-63
2022/04/27 04:56:07;;;;;;;;;35.25;33.50;;;;;6.40;70.22;101300.53;4997094;28;45332;-64
2022/04/27 04:58:32;;;;;;;;;45.00;34.50;;;;;6.44;70.37;101299.59;4996669;28;45555;-65
2022/04/27 05:00:59;;;;;;;;;42.00;35.00;;;;;6.42;69.83;101310.06;4996026;28;46207;-64
2022/04/27 05:03:24;;;;;;;;;39.50;34.00;;;;;6.43;70.16;101305.72;4995949;28;45535;-65
2022/04/27 05:05:50;;;;;;;;;43.50;35.00;;;;;6.46;70.40;101316.13;4996285;28;45345;-63
2022/04/27 05:08:15;;;;;;;;;42.00;36.50;;;;;6.47;70.14;101320.47;4996396;28;45462;-65
2022/04/27 05:10:41;;;;;;;;;50.00;39.00;;;;;6.49;70.12;101317.81;4996366;28;46049;-65
2022/04/27 05:13:06;;;;;;;;;39.25;33.50;;;;;6.50;71.58;101311.72;4978503;28;45335;-66
2022/04/27 05:15:32;;;;;;;;;42.50;34.50;;;;;6.49;70.94;101323.06;4996637;28;45414;-64
2022/04/27 05:17:57;;;;;;;;;38.00;33.75;;;;;6.47;70.58;101328.31;4996927;28;45216;-64
2022/04/27 05:20:23;;;;;;;;;48.75;37.00;;;;;6.47;71.49;101323.09;4995969;28;46253;-65
2022/04/27 05:22:48;;;;;;;;;44.00;35.00;;;;;6.43;71.66;101316.16;4996167;28;45259;-65
2022/04/27 05:25:14;;;;;;;;;50.25;38.25;;;;;6.46;72.23;101328.31;4996167;28;45252;-63
2022/04/27 05:27:40;;;;;;;;;42.00;36.00;;;;;6.47;71.51;101330.94;4996612;28;45508;-66
2022/04/27 05:32:51;;;;;;;;;48.75;41.00;;;;;6.49;72.21;101331.78;4995374;28;45187;-62
2022/04/27 05:35:16;;;;;;;;;43.25;36.25;;;;;6.52;71.80;101325.63;4995779;28;45383;-64
2022/04/27 05:37:42;;;;;;;;;50.00;40.75;;;;;6.54;71.43;101332.59;4996390;28;45431;-65
2022/04/27 05:40:09;;;;;;;;;48.00;37.50;;;;;6.57;71.34;101334.28;4995574;28;45433;-64
2022/04/27 05:42:36;;;;;;;;;44.50;35.00;;;;;6.62;71.27;101329.88;4977783;28;45524;-63
2022/04/27 05:45:03;;;;;;;;;48.25;39.00;;;;;6.65;70.74;101332.44;4995133;28;45425;-65
2022/04/27 05:47:29;;;;;;;;;46.75;37.00;;;;;6.69;71.43;101336.75;4995790;28;45474;-64
2022/04/27 05:49:54;;;;;;;;;44.00;38.00;;;;;6.74;71.79;101341.94;4995528;28;46348;-64
2022/04/27 05:52:20;;;;;;;;;47.50;37.00;;;;;6.80;71.09;101343.59;4995600;28;45335;-64
2022/04/27 05:54:47;;;;;;;;;45.50;37.00;;;;;6.82;71.17;101344.44;4995814;28;45544;-65
2022/04/27 05:57:12;;;;;;;;;47.25;38.00;;;;;6.84;71.01;101345.28;4996073;28;45536;-63
2022/04/27 05:59:38;;;;;;;;;39.00;35.75;;;;;6.90;70.21;101352.22;4995343;28;45419;-68
2022/04/27 06:02:03;;;;;;;;;45.00;36.75;;;;;6.97;71.21;101369.56;4995185;28;45317;-62
2022/04/27 06:04:29;;;;;;;;;41.50;35.25;;;;;7.03;70.21;101369.47;4995306;28;45276;-63
2022/04/27 06:06:54;;;;;;;;;49.00;39.75;;;;;7.11;69.62;101364.16;4995661;28;45415;-63
2022/04/27 06:09:20;;;;;;;;;47.25;36.75;;;;;7.16;70.34;101368.44;4995160;28;46464;-65
2022/04/27 06:11:46;;;;;;;;;48.00;37.50;;;;;7.22;68.94;101361.38;4995169;28;45391;-62
2022/04/27 06:14:11;;;;;;;;;49.25;39.25;;;;;7.35;68.89;101373.41;4995496;28;45300;-62
2022/04/27 06:16:36;;;;;;;;;45.50;38.00;;;;;7.40;69.16;101373.38;4995510;28;45591;-64
2022/04/27 06:19:03;;;;;;;;;49.75;39.25;;;;;7.48;68.82;101395.06;4994840;28;45742;-65
2022/04/27 06:21:31;;;;;;;;;44.25;37.00;;;;;7.56;68.50;101385.34;4993299;28;45300;-65
2022/04/27 06:23:58;;;;;;;;;48.00;38.75;;;;;7.66;68.00;101393.94;4994999;28;45346;-65
2022/04/27 06:26:24;;;;;;;;;47.75;37.50;;;;;7.78;67.80;101392.88;4995169;28;45279;-64
2022/04/27 06:28:51;;;;;;;;;37.25;31.50;;;;;7.87;67.56;101397.97;4995282;28;45668;-64
2022/04/27 06:31:18;;;;;;;;;49.50;38.00;;;;;7.99;67.51;101390.81;4994925;28;45271;-65
2022/04/27 06:33:44;;;;;;;;;50.25;38.00;;;;;8.10;67.09;101398.50;4994876;28;45332;-64
2022/04/27 06:36:10;;;;;;;;;46.75;39.25;;;;;8.19;66.80;101396.59;4995239;28;45553;-66
2022/04/27 06:38:35;;;;;;;;;51.25;39.00;;;;;8.34;66.07;101400.69;4995019;28;45683;-65
2022/04/27 06:41:02;;;;;;;;;45.75;38.00;;;;;8.44;65.98;101400.50;4994618;28;45440;-65
2022/04/27 06:43:27;;;;;;;;;46.25;36.75;;;;;8.59;65.88;101402.91;4994713;28;45361;-66
2022/04/27 06:45:53;;;;;;;;;50.25;41.00;;;;;8.77;65.77;101406.94;4994841;28;45547;-66
2022/04/27 06:48:18;;;;;;;;;49.50;41.00;;;;;8.88;65.35;101404.09;4993499;28;47429;-64
2022/04/27 06:50:44;;;;;;;;;45.50;36.50;;;;;9.00;65.02;101413.47;4994856;28;45456;-64
2022/04/27 06:53:10;;;;;;;;;47.00;38.75;;;;;9.10;64.13;101406.28;4994398;28;45406;-67
2022/04/27 06:55:37;;;;;;;;;49.00;39.75;;;;;9.23;64.09;101414.78;4994578;28;45326;-64
2022/04/27 06:58:03;;;;;;;;;47.00;39.25;;;;;9.32;63.62;101413.69;4997285;28;45797;-66
2022/04/27 07:00:28;;;;;;;;;49.75;40.50;;;;;9.44;63.24;101425.72;4998353;28;45246;-64
2022/04/27 07:02:54;;;;;;;;;45.50;38.50;;;;;9.54;62.99;101429.88;4980900;28;45415;-67
2022/04/27 07:05:21;;;;;;;;;52.00;41.00;;;;;9.54;62.65;101424.63;4998292;28;45329;-64
2022/04/27 07:07:47;;;;;;;;;48.25;39.00;;;;;9.61;62.27;101427.97;4997082;28;46317;-64
2022/04/27 07:10:15;;;;;;;;;43.50;38.25;;;;;9.64;62.17;101427.91;4997777;28;45558;-63
2022/04/27 07:12:42;;;;;;;;;46.25;39.25;;;;;9.69;62.13;101431.28;5016827;28;45451;-65
2022/04/27 07:15:09;;;;;;;;;50.50;40.50;;;;;9.81;62.24;101435.38;5013171;28;46027;-66
2022/04/27 07:17:34;;;;;;;;;45.25;36.00;;;;;9.88;61.71;101434.34;5005055;28;46444;-65
2022/04/27 07:20:00;;;;;;;;;47.50;38.75;;;;;10.02;61.50;101439.28;4997690;28;45377;-64
2022/04/27 07:22:25;;;;;;;;;41.00;36.25;;;;;10.08;61.06;101438.28;4976419;28;45320;-68
2022/04/27 07:24:51;;;;;;;;;49.25;38.50;;;;;10.19;60.67;101440.63;4998310;28;45503;-67
2022/04/27 07:27:17;;;;;;;;;50.50;39.75;;;;;10.27;60.34;101438.66;5000502;28;47040;-67
2022/04/27 07:29:43;;;;;;;;;50.25;39.75;;;;;10.32;60.75;101428.91;4997971;28;45488;-70
2022/04/27 07:32:09;;;;;;;;;44.50;38.00;;;;;10.41;60.09;101435.72;5003193;28;45393;-69
2022/04/27 07:34:34;;;;;;;;;42.75;37.00;;;;;10.51;60.16;101436.34;4998683;28;45603;-68
2022/04/27 07:37:02;;;;;;;;;39.75;36.25;;;;;10.61;59.46;101432.59;5015435;28;45516;-70
2022/04/27 07:39:28;;;;;;;;;51.75;41.00;;;;;10.70;59.23;101431.47;5017384;28;45306;-69
2022/04/27 07:41:54;;;;;;;;;40.50;36.00;;;;;10.70;58.97;101425.34;5016158;28;45455;-68
2022/04/27 07:44:19;;;;;;;;;47.25;38.75;;;;;10.86;58.99;101438.94;5017726;28;45355;-69
2022/04/27 07:46:47;;;;;;;;;44.50;35.75;;;;;10.95;59.01;101450.09;5017550;28;45358;-68
2022/04/27 07:49:14;;;;;;;;;46.75;37.50;;;;;11.03;58.25;101447.22;5016914;28;45409;-69
2022/04/27 07:51:39;;;;;;;;;44.25;37.00;;;;;11.06;58.09;101441.88;4999141;28;45459;-68
2022/04/27 07:54:04;;;;;;;;;42.50;33.75;;;;;11.15;58.59;101456.56;5017437;28;45368;-70
2022/04/27 07:56:30;;;;;;;;;45.25;37.75;;;;;11.35;58.45;101452.47;4999024;28;46895;-69
2022/04/27 07:58:56;;;;;;;;;48.00;35.25;;;;;11.47;58.27;101460.00;5016824;28;45435;-69
2022/04/27 08:01:21;;;;;;;;;43.25;34.50;;;;;11.55;57.62;101447.47;5017146;28;45390;-68
2022/04/27 08:03:46;;;;;;;;;40.75;34.75;;;;;11.58;57.23;101443.00;5017695;28;45650;-69
2022/04/27 08:06:12;;;;;;;;;45.75;36.75;;;;;11.63;57.29;101451.63;5016905;28;45334;-69
2022/04/27 08:08:38;;;;;;;;;46.75;36.50;;;;;11.70;57.11;101453.22;5001764;28;45420;-69
2022/04/27 08:11:04;;;;;;;;;47.75;39.00;;;;;11.77;56.90;101459.13;4995827;28;45302;-70
2022/04/27 08:13:29;;;;;;;;;42.00;34.75;;;;;11.90;56.88;101456.97;4994983;28;45319;-69
2022/04/27 08:15:56;;;;;;;;;38.25;33.75;;;;;12.01;56.48;101464.56;4995920;28;45743;-67
2022/04/27 08:18:21;;;;;;;;;45.50;35.00;;;;;12.10;55.84;101457.22;4995822;28;46858;-68
2022/04/27 08:23:34;;;;;;;;;37.75;34.75;;;;;12.20;55.79;101457.81;4996566;28;45592;-67
2022/04/27 08:26:02;;;;;;;;;43.25;34.50;;;;;12.21;56.06;101456.03;4995743;28;46220;-68
2022/04/27 08:28:28;;;;;;;;;43.75;36.50;;;;;12.33;55.87;101454.75;4995841;28;45421;-69
2022/04/27 08:30:55;;;;;;;;;42.50;35.00;;;;;12.42;55.76;101457.94;4995848;28;45338;-69
2022/04/27 08:33:21;;;;;;;;;49.00;39.00;;;;;12.53;55.17;101470.78;4994493;28;45230;-68
2022/04/27 08:35:47;;;;;;;;;45.75;36.25;;;;;12.59;55.17;101467.06;4995332;28;45436;-69
2022/04/27 08:38:13;;;;;;;;;39.75;35.00;;;;;12.68;55.49;101468.53;4995831;28;45393;-70
2022/04/27 08:40:42;;;;;;;;;49.50;38.25;;;;;12.71;55.29;101455.22;4995365;28;45458;-69
2022/04/27 08:43:11;;;;;;;;;43.75;37.75;;;;;12.85;54.91;101471.41;4995266;28;45615;-70
2022/04/27 08:45:40;;;;;;;;;46.25;39.00;;;;;12.95;55.14;101464.06;4993992;28;45585;-70
2022/04/27 08:48:07;;;;;;;;;51.00;40.00;;;;;12.96;54.10;101470.19;4978494;28;45438;-69
2022/04/27 08:50:33;;;;;;;;;37.75;34.25;;;;;13.05;54.07;101467.19;4995565;28;45418;-69
2022/04/27 08:52:58;;;;;;;;;43.25;37.25;;;;;12.99;53.87;101462.16;4978971;28;45595;-70
2022/04/27 08:55:27;;;;;;;;;47.50;39.25;;;;;12.98;54.17;101460.41;4996320;28;46246;-69
2022/04/27 08:57:53;;;;;;;;;46.75;38.75;;;;;13.09;54.51;101460.88;4996800;28;45973;-68
2022/04/27 09:00:21;;;;;;;;;49.25;38.00;;;;;13.27;54.50;101459.34;4995534;28;45388;-67
2022/04/27 09:02:52;;;;;;;;;43.25;36.75;;;;;13.34;53.61;101470.56;4996657;28;45341;-69
2022/04/27 09:05:21;;;;;;;;;45.50;35.25;;;;;13.39;53.66;101459.81;4996624;28;46638;-70
2022/04/27 09:07:50;;;;;;;;;47.50;39.25;;;;;13.44;53.85;101461.41;4978446;28;45314;-69
2022/04/27 09:10:17;;;;;;;;;45.50;39.50;;;;;13.53;53.76;101468.09;4978558;28;45242;-69
2022/04/27 09:12:56;;;;;;;;;50.25;40.25;;;;;13.67;53.62;101458.78;4978786;28;45356;-68
2022/04/27 09:15:23;;;;;;;;;47.00;37.50;;;;;13.77;53.30;101460.13;4996103;28;47252;-68
2022/04/27 09:23:28;;;;;;;;;50.75;41.75;;;;;14.22;52.89;101468.91;4996214;28;45422;-67
2022/04/27 09:26:00;;;;;;;;;59.00;46.00;;;;;14.34;52.29;101474.66;4996096;28;45384;-68
2022/04/27 09:28:30;;;;;;;;;49.50;41.00;;;;;14.44;52.50;101458.31;4995472;28;45537;-68
2022/04/27 09:30:56;;;;;;;;;56.25;43.75;;;;;14.59;52.43;101464.75;4996051;28;45259;-67
2022/04/27 09:33:36;;;;;;;;;47.00;38.50;;;;;14.72;51.82;101467.72;4996058;28;45643;-68
2022/04/27 09:36:18;;;;;;;;;47.25;37.75;;;;;14.83;51.82;101461.97;4995831;28;46479;-69
2022/04/27 09:38:44;;;;;;;;;48.00;37.50;;;;;14.99;51.60;101464.81;4995401;28;45277;-70
2022/04/27 09:41:09;;;;;;;;;49.00;39.75;;;;;15.10;51.26;101460.81;4995657;28;45355;-69
2022/04/27 09:43:46;;;;;;;;;42.50;35.50;;;;;15.23;51.04;101461.97;4996167;28;45946;-69
2022/04/27 09:46:16;;;;;;;;;49.75;41.00;;;;;15.37;50.54;101471.09;4995530;28;46069;-70
2022/04/27 09:48:42;;;;;;;;;49.50;40.00;;;;;15.33;50.61;101455.31;4995561;28;45334;-69
2022/04/27 09:51:16;;;;;;;;;38.75;34.50;;;;;15.42;50.25;101463.78;4977896;28;45356;-69
2022/04/27 09:53:42;;;;;;;;;44.25;35.00;;;;;15.50;50.37;101460.78;4995540;28;45445;-70
2022/04/27 09:56:14;;;;;;;;;38.75;34.50;;;;;15.61;50.33;101458.47;4995215;28;45426;-71
2022/04/27 09:58:44;;;;;;;;;47.00;39.75;;;;;15.65;50.02;101456.53;4995430;28;45254;-69
2022/04/27 10:01:16;;;;;;;;;47.25;39.25;;;;;15.64;49.07;101447.72;4994340;28;45350;-69
2022/04/27 10:03:47;;;;;;;;;48.00;38.00;;;;;15.58;49.49;101451.50;4995828;28;45448;-71
2022/04/27 10:06:13;;;;;;;;;42.75;36.00;;;;;15.66;50.12;101442.34;4994741;28;45265;-69
2022/04/27 10:08:40;;;;;;;;;44.75;37.25;;;;;15.83;49.44;101446.84;4994932;28;45333;-70
2022/04/27 10:11:07;;;;;;;;;46.25;38.75;;;;;15.96;49.53;101439.19;4994074;28;45329;-70
2022/04/27 10:13:33;;;;;;;;;47.75;39.75;;;;;16.10;49.21;101439.34;4995189;28;45453;-69
2022/04/27 10:15:59;;;;;;;;;44.25;35.75;;;;;16.10;48.38;101443.78;4994958;28;46153;-69
2022/04/27 10:18:24;;;;;;;;;45.75;38.00;;;;;16.06;49.31;101440.44;4995385;28;45331;-70
2022/04/27 10:20:51;;;;;;;;;47.50;38.25;;;;;16.11;48.98;101422.50;4995477;28;45429;-68
2022/04/27 10:23:27;;;;;;;;;45.75;38.00;;;;;16.30;48.87;101424.22;4995526;28;45227;-68
2022/04/27 10:26:08;;;;;;;;;45.50;37.75;;;;;16.37;48.12;101420.31;4995062;28;46337;-68
2022/04/27 10:28:37;;;;;;;;;44.25;36.00;;;;;16.19;47.90;101422.97;4977145;28;45517;-68
2022/04/27 10:31:04;;;;;;;;;39.75;33.00;;;;;16.17;48.41;101416.00;4977119;28;45362;-68
2022/04/27 10:33:58;;;;;;;;;45.25;35.75;;;;;16.40;48.13;101406.88;4994209;28;45594;-69
2022/04/27 10:36:29;;;;;;;;;42.75;36.25;;;;;16.53;47.45;101403.56;4973940;28;46629;-68
2022/04/27 10:39:16;;;;;;;;;46.00;36.25;;;;;16.84;48.06;101402.81;4994963;28;45416;-72
2022/04/27 10:42:05;;;;;;;;;46.00;34.50;;;;;17.15;46.65;101392.38;4994654;28;45315;-70
2022/04/27 10:44:49;;;;;;;;;46.00;39.75;;;;;17.16;46.20;101404.72;4947232;28;45415;-70
2022/04/27 10:47:16;;;;;;;;;44.00;37.00;;;;;17.08;46.00;101403.34;4994271;28;45479;-70
2022/04/27 10:49:42;;;;;;;;;41.50;34.25;;;;;17.10;46.34;101399.72;4994506;28;45607;-71
2022/04/27 10:52:08;;;;;;;;;43.25;33.50;;;;;17.37;46.45;101397.31;4992901;28;45404;-72
2022/04/27 10:54:38;;;;;;;;;47.00;35.00;;;;;17.72;45.96;101399.81;4994429;28;45353;-69
2022/04/27 10:57:19;;;;;;;;;49.50;41.75;;;;;17.89;45.49;101400.63;4994138;28;46548;-69
2022/04/27 10:59:59;;;;;;;;;41.50;34.00;;;;;17.99;44.64;101395.63;4994223;28;45399;-69
2022/04/27 11:02:37;;;;;;;;;39.00;31.50;;;;;18.17;45.14;101391.06;4976673;28;45406;-69
2022/04/27 11:05:23;;;;;;;;;29.50;27.75;;;;;18.56;43.81;101384.28;4994828;28;45410;-69
2022/04/27 11:07:58;;;;;;;;;27.50;26.25;;;;;18.77;42.13;101387.41;4993580;28;45837;-69
2022/04/27 11:10:24;;;;;;;;;31.75;30.00;;;;;18.95;41.55;101381.88;4994161;28;45419;-70
2022/04/27 11:12:56;;;;;;;;;29.00;26.00;;;;;19.09;41.82;101375.72;4994223;28;45424;-69
2022/04/27 11:15:22;;;;;;;;;29.75;27.50;;;;;19.18;41.01;101387.63;4994512;28;45382;-71
2022/04/27 11:18:01;;;;;;;;;29.50;28.25;;;;;19.14;40.40;101381.63;4993450;28;45456;-68
2022/04/27 11:20:39;;;;;;;;;32.50;29.75;;;;;19.11;40.91;101377.34;4976176;28;45347;-70
2022/04/27 11:23:20;;;;;;;;;30.50;30.00;;;;;19.25;41.00;101368.44;4975859;28;45744;-69
2022/04/27 11:25:51;;;;;;;;;38.25;32.00;;;;;19.38;41.05;101376.53;4994127;28;45342;-70
2022/04/27 11:28:17;;;;;;;;;36.75;33.00;;;;;19.26;40.98;101378.16;4993832;28;45432;-69
2022/04/27 11:30:44;;;;;;;;;37.00;32.75;;;;;19.03;40.50;101373.44;4993875;28;45346;-68
2022/04/27 11:33:11;;;;;;;;;30.25;27.00;;;;;18.71;40.55;101369.16;4975791;28;45499;-69